createdAt,value
2023-03-04T00:01:46.700Z,34.15
2023-03-04T00:04:48.626Z,41.72
2023-03-04T00:07:50.738Z,37.17
2023-03-04T00:10:52.770Z,34.78
2023-03-04T00:13:56.228Z,40.90
2023-03-04T00:16:58.486Z,40.75
2023-03-04T00:20:00.517Z,47.70
2023-03-04T00:23:02.521Z,44.50
2023-03-04T00:26:05.075Z,46.38
2023-03-04T00:29:07.067Z,48.22
2023-03-04T00:32:09.705Z,45.67
2023-03-04T00:35:11.769Z,47.45
2023-03-04T00:38:13.614Z,46.15
2023-03-04T00:41:15.577Z,46.20
2023-03-04T00:44:17.556Z,48.00
2023-03-04T00:47:19.461Z,47.30
2023-03-04T00:50:21.712Z,45.28
2023-03-04T00:53:23.801Z,44.28
2023-03-04T00:56:25.799Z,45.38
2023-03-04T00:59:27.921Z,45.08
2023-03-04T01:02:30.062Z,46.83
2023-03-04T01:05:32.226Z,50.72
2023-03-04T01:08:34.529Z,49.78
2023-03-04T01:11:36.511Z,42.95
2023-03-04T01:14:38.411Z,43.45
2023-03-04T01:17:41.200Z,46.35
2023-03-04T01:20:43.371Z,39.92
2023-03-04T01:23:45.361Z,43.40
2023-03-04T01:26:48.313Z,44.70
2023-03-04T01:29:50.333Z,47.40
2023-03-04T01:32:52.279Z,48.28
2023-03-04T01:35:54.318Z,46.92
2023-03-04T01:38:56.376Z,49.47
2023-03-04T01:45:01.786Z,51.08
2023-03-04T01:48:04.294Z,52.05
2023-03-04T01:51:12.305Z,48.60
2023-03-04T01:54:14.704Z,50.70
2023-03-04T01:57:20.862Z,49.95
2023-03-04T02:00:32.141Z,52.10
2023-03-04T02:03:34.382Z,47.55
2023-03-04T02:06:39.564Z,50.63
2023-03-04T02:09:41.745Z,46.67
2023-03-04T02:12:45.007Z,47.10
2023-03-04T02:18:49.083Z,53.45
2023-03-04T02:21:51.137Z,46.83
2023-03-04T02:25:03.585Z,44.22
2023-03-04T02:28:05.786Z,51.30
2023-03-04T02:31:19.858Z,50.78
2023-03-04T02:34:32.884Z,52.03
2023-03-04T02:37:34.868Z,49.13
2023-03-04T02:40:39.081Z,49.33
2023-03-04T02:43:41.326Z,45.10
2023-03-04T02:46:43.567Z,52.50
2023-03-04T02:49:47.214Z,46.90
2023-03-04T02:52:49.109Z,49.15
2023-03-04T02:55:51.114Z,45.22
2023-03-04T02:58:56.311Z,42.28
2023-03-04T03:01:58.592Z,51.63
2023-03-04T03:05:00.652Z,45.33
2023-03-04T03:08:03.415Z,47.03
2023-03-04T03:14:11.106Z,48.88
2023-03-04T03:17:13.902Z,40.90
2023-03-04T03:20:17.189Z,42.65
2023-03-04T03:26:21.375Z,41.78
2023-03-04T03:29:23.535Z,45.22
2023-03-04T03:32:25.658Z,42.28
2023-03-04T03:35:28.328Z,40.70
2023-03-04T03:38:31.400Z,45.03
2023-03-04T03:41:33.544Z,47.67
2023-03-04T03:44:35.506Z,43.47
2023-03-04T03:47:37.554Z,51.40
2023-03-04T03:50:39.544Z,48.47
2023-03-04T03:53:41.554Z,51.00
2023-03-04T03:56:43.459Z,46.00
2023-03-04T03:59:45.689Z,48.80
2023-03-04T04:02:47.757Z,52.75
2023-03-04T04:05:49.854Z,45.75
2023-03-04T04:08:52.104Z,55.58
2023-03-04T04:11:54.060Z,52.58
2023-03-04T04:14:55.990Z,48.30
2023-03-04T04:17:57.916Z,44.78
2023-03-04T04:20:59.828Z,49.42
2023-03-04T04:24:01.858Z,45.65
2023-03-04T04:27:04.008Z,49.97
2023-03-04T04:30:06.909Z,49.75
2023-03-04T04:33:10.249Z,44.58
2023-03-04T04:39:19.784Z,48.55
2023-03-04T04:42:22.259Z,48.10
2023-03-04T04:45:25.383Z,50.08
2023-03-04T04:48:27.362Z,51.38
2023-03-04T04:51:29.576Z,48.22
2023-03-04T04:54:31.737Z,48.63
2023-03-04T04:57:34.521Z,49.65
2023-03-04T05:00:42.081Z,54.38
2023-03-04T05:03:45.257Z,56.20
2023-03-04T05:06:47.560Z,55.20
2023-03-04T05:09:49.790Z,53.08
2023-03-04T05:12:51.769Z,45.70
2023-03-04T05:15:55.560Z,49.90
2023-03-04T05:18:57.694Z,49.08
2023-03-04T05:21:59.929Z,49.13
2023-03-04T05:25:02.440Z,42.38
2023-03-04T05:28:04.517Z,62.70
2023-03-04T05:31:06.729Z,53.92
2023-03-04T05:34:08.708Z,50.65
2023-03-04T05:37:10.651Z,54.03
2023-03-04T05:40:13.140Z,55.95
2023-03-04T05:43:15.530Z,56.88
2023-03-04T05:46:19.167Z,53.72
2023-03-04T05:49:21.177Z,54.65
2023-03-04T05:52:23.084Z,60.08
2023-03-04T05:55:25.124Z,57.60
2023-03-04T05:58:27.028Z,51.83
2023-03-04T06:01:30.002Z,47.83
2023-03-04T06:07:34.955Z,54.47
2023-03-04T06:10:37.119Z,50.88
2023-03-04T06:13:39.659Z,52.72
2023-03-04T06:16:41.950Z,51.35
2023-03-04T06:19:44.010Z,54.25
2023-03-04T06:22:46.934Z,56.92
2023-03-04T06:25:55.823Z,51.35
2023-03-04T06:28:57.986Z,55.90
2023-03-04T06:32:00.095Z,52.85
2023-03-04T06:35:02.272Z,55.50
2023-03-04T06:38:04.278Z,54.92
2023-03-04T06:41:10.096Z,58.67
2023-03-04T06:44:14.585Z,54.55
2023-03-04T06:47:16.544Z,57.90
2023-03-04T06:50:19.047Z,49.70
2023-03-04T06:53:22.496Z,62.58
2023-03-04T06:56:24.771Z,54.60
2023-03-04T06:59:27.889Z,63.90
2023-03-04T07:02:30.874Z,58.22
2023-03-04T07:05:33.316Z,58.78
2023-03-04T07:08:36.225Z,57.92
2023-03-04T07:11:38.560Z,61.22
2023-03-04T07:14:41.162Z,55.28
2023-03-04T07:17:43.598Z,55.15
2023-03-04T07:20:46.340Z,57.13
2023-03-04T07:23:49.000Z,56.20
2023-03-04T07:26:51.184Z,66.07
2023-03-04T07:29:53.270Z,68.32
2023-03-04T07:32:57.972Z,79.20
2023-03-04T07:36:00.935Z,62.70
2023-03-04T07:39:03.770Z,61.53
2023-03-04T07:42:05.837Z,56.30
2023-03-04T07:45:13.875Z,60.13
2023-03-04T07:48:15.943Z,56.97
2023-03-04T07:51:23.282Z,63.33
2023-03-04T07:54:25.528Z,59.63
2023-03-04T07:57:27.529Z,61.67
2023-03-04T08:00:29.621Z,64.93
2023-03-04T08:03:31.815Z,55.55
2023-03-04T08:06:34.639Z,52.08
2023-03-04T08:09:36.891Z,54.85
2023-03-04T08:12:39.000Z,59.33
2023-03-04T08:15:43.138Z,57.95
2023-03-04T08:18:48.185Z,55.33
2023-03-04T08:21:50.252Z,51.88
2023-03-04T08:24:52.344Z,52.50
2023-03-04T08:27:54.403Z,59.95
2023-03-04T08:30:56.458Z,54.90
2023-03-04T08:33:58.500Z,58.05
2023-03-04T08:37:00.491Z,52.35
2023-03-04T08:40:02.539Z,50.88
2023-03-04T08:43:04.541Z,52.63
2023-03-04T08:46:06.602Z,51.80
2023-03-04T08:49:10.315Z,58.22
2023-03-04T08:52:12.461Z,49.72
2023-03-04T08:55:14.529Z,51.38
2023-03-04T08:58:16.603Z,50.08
2023-03-04T09:01:18.709Z,50.03
2023-03-04T09:04:20.659Z,49.20
2023-03-04T09:07:22.684Z,49.88
2023-03-04T09:10:25.481Z,52.47
2023-03-04T09:13:30.915Z,49.00
2023-03-04T09:16:33.100Z,52.72
2023-03-04T09:19:35.131Z,54.22
2023-03-04T09:22:38.581Z,51.60
2023-03-04T09:25:42.420Z,53.20
2023-03-04T09:28:44.734Z,49.45
2023-03-04T09:31:47.235Z,54.30
2023-03-04T09:34:49.174Z,50.72
2023-03-04T09:37:51.254Z,52.95
2023-03-04T09:40:53.610Z,52.10
2023-03-04T09:43:56.162Z,48.83
2023-03-04T09:47:01.443Z,51.67
2023-03-04T09:50:08.615Z,53.75
2023-03-04T09:53:29.004Z,54.67
2023-03-04T09:56:34.576Z,55.42
2023-03-04T09:59:46.564Z,53.33
2023-03-04T10:03:12.647Z,54.00
2023-03-04T10:06:20.287Z,52.28
2023-03-04T10:09:45.932Z,54.70
2023-03-04T10:12:50.209Z,51.85
2023-03-04T10:15:53.240Z,47.28
2023-03-04T10:19:16.811Z,55.50
2023-03-04T10:22:41.279Z,54.45
2023-03-04T10:25:45.782Z,51.80
2023-03-04T10:28:48.928Z,50.08
2023-03-04T10:31:51.518Z,54.67
2023-03-04T10:34:53.663Z,51.03
2023-03-04T10:37:55.661Z,49.72
2023-03-04T10:40:58.711Z,49.33
2023-03-04T10:44:10.087Z,45.03
2023-03-04T10:47:12.193Z,51.85
2023-03-04T10:50:26.986Z,48.08
2023-03-04T10:53:38.007Z,50.53
2023-03-04T10:56:43.281Z,47.25
2023-03-04T11:00:04.169Z,42.70
2023-03-04T11:03:29.900Z,43.80
2023-03-04T11:06:32.978Z,46.10
2023-03-04T11:09:35.957Z,46.13
2023-03-04T11:12:39.023Z,49.58
2023-03-04T11:15:51.200Z,45.00
2023-03-04T11:19:00.825Z,44.33
2023-03-04T11:22:05.657Z,46.08
2023-03-04T11:25:39.900Z,40.67
2023-03-04T11:29:00.140Z,42.88
2023-03-04T11:32:12.395Z,39.65
2023-03-04T11:35:34.014Z,44.10
2023-03-04T11:38:42.640Z,42.42
2023-03-04T11:41:56.850Z,41.83
2023-03-04T11:45:00.072Z,43.03
2023-03-04T11:48:40.109Z,42.72
2023-03-04T12:03:35.598Z,38.05
2023-03-04T12:07:11.721Z,40.95
2023-03-04T12:10:23.123Z,41.83
2023-03-04T12:13:50.965Z,41.53
2023-03-04T12:17:06.776Z,42.28
2023-03-04T12:20:31.234Z,46.47
2023-03-04T12:23:46.923Z,44.83
2023-03-04T12:27:03.846Z,40.75
2023-03-04T12:30:36.037Z,38.45
2023-03-04T12:33:38.483Z,42.90
2023-03-04T12:37:00.373Z,41.50
2023-03-04T12:40:31.098Z,41.08
2023-03-04T12:43:52.166Z,35.72
2023-03-04T12:50:26.153Z,43.97
2023-03-04T12:53:40.056Z,39.58
2023-03-04T12:57:00.884Z,34.63
2023-03-04T13:00:21.378Z,32.20
2023-03-04T13:03:32.817Z,35.65
2023-03-04T13:07:04.190Z,36.38
2023-03-04T13:10:17.037Z,36.75
2023-03-04T13:13:40.601Z,36.83
2023-03-04T13:16:51.220Z,39.67
2023-03-04T13:19:58.567Z,34.58
2023-03-04T13:23:24.744Z,34.60
2023-03-04T13:26:34.614Z,35.85
2023-03-04T13:29:37.372Z,36.90
2023-03-04T13:32:40.070Z,37.75
2023-03-04T13:35:51.964Z,30.67
2023-03-04T13:39:17.588Z,32.65
2023-03-04T13:42:43.869Z,31.15
2023-03-04T13:45:47.072Z,27.90
2023-03-04T13:48:54.123Z,27.55
2023-03-04T13:51:58.463Z,27.52
2023-03-04T13:55:40.177Z,30.48
2023-03-04T13:58:43.614Z,28.77
2023-03-04T14:02:14.550Z,28.90
2023-03-04T14:05:19.746Z,26.65
2023-03-04T14:08:35.017Z,30.90
2023-03-04T14:11:41.418Z,26.58
2023-03-04T14:14:58.016Z,26.30
2023-03-04T14:18:15.855Z,23.30
2023-03-04T14:21:24.865Z,23.67
2023-03-04T14:24:27.592Z,28.73
2023-03-04T14:30:43.468Z,25.90
2023-03-04T14:34:00.869Z,21.05
2023-03-04T14:37:05.035Z,28.05
2023-03-04T14:40:24.695Z,29.05
2023-03-04T14:43:30.502Z,28.73
2023-03-04T14:47:07.860Z,27.08
2023-03-04T14:50:23.352Z,22.67
2023-03-04T14:53:28.034Z,22.45
2023-03-04T14:56:33.579Z,23.70
2023-03-04T14:59:36.347Z,27.92
2023-03-04T15:02:39.818Z,26.63
2023-03-04T15:05:41.888Z,28.98
2023-03-04T15:08:44.237Z,21.38
2023-03-04T15:12:07.036Z,22.95
2023-03-04T15:15:37.250Z,25.15
2023-03-04T15:18:40.263Z,25.52
2023-03-04T15:21:42.138Z,24.63
2023-03-04T15:24:44.002Z,21.25
2023-03-04T15:27:47.548Z,22.45
2023-03-04T15:30:50.129Z,25.60
2023-03-04T15:33:52.484Z,21.15
2023-03-04T15:36:56.839Z,24.50
2023-03-04T15:39:59.149Z,23.20
2023-03-04T15:43:03.470Z,18.52
2023-03-04T15:46:05.566Z,23.67
2023-03-04T15:49:07.586Z,23.17
2023-03-04T15:52:27.550Z,20.42
2023-03-04T15:55:31.186Z,25.67
2023-03-04T15:58:35.172Z,25.00
2023-03-04T16:01:37.358Z,22.50
2023-03-04T16:04:39.429Z,18.45
2023-03-04T16:07:45.715Z,23.98
2023-03-04T16:10:48.100Z,20.42
2023-03-04T16:13:52.849Z,21.52
2023-03-04T16:16:54.729Z,21.02
2023-03-04T16:19:56.842Z,18.65
2023-03-04T16:23:00.633Z,26.45
2023-03-04T16:26:02.741Z,23.25
2023-03-04T16:29:04.722Z,20.55
2023-03-04T16:32:07.568Z,21.33
2023-03-04T16:35:10.443Z,23.60
2023-03-04T16:38:27.358Z,20.02
2023-03-04T16:41:30.012Z,23.15
2023-03-04T16:44:31.973Z,29.02
2023-03-04T16:47:33.800Z,27.52
2023-03-04T16:50:37.386Z,20.60
2023-03-04T16:53:41.481Z,25.55
2023-03-04T16:56:43.374Z,24.00
2023-03-04T16:59:45.379Z,25.30
2023-03-04T17:02:57.849Z,21.50
2023-03-04T17:05:59.873Z,27.25
2023-03-04T17:09:02.035Z,26.10
2023-03-04T17:12:09.839Z,23.30
2023-03-04T17:15:15.904Z,28.27
2023-03-04T17:18:17.859Z,24.95
2023-03-04T17:21:28.281Z,26.75
2023-03-04T17:24:30.941Z,29.63
2023-03-04T17:27:33.923Z,30.15
2023-03-04T17:33:39.276Z,34.10
2023-03-04T17:36:42.012Z,30.35
2023-03-04T17:39:44.143Z,29.70
2023-03-04T17:42:46.225Z,26.40
2023-03-04T17:45:48.474Z,31.80
2023-03-04T17:48:53.448Z,24.05
2023-03-04T17:51:58.893Z,29.90
2023-03-04T17:55:01.278Z,28.20
2023-03-04T17:58:03.329Z,25.42
2023-03-04T18:04:17.776Z,28.20
2023-03-04T18:07:19.746Z,30.42
2023-03-04T18:10:21.872Z,29.15
2023-03-04T18:13:23.881Z,30.52
2023-03-04T18:16:25.942Z,26.90
2023-03-04T18:19:28.040Z,29.52
2023-03-04T18:22:32.821Z,34.53
2023-03-04T18:25:34.859Z,32.92
2023-03-04T18:28:36.892Z,33.92
2023-03-04T18:31:39.503Z,27.23
2023-03-04T18:34:42.505Z,28.23
2023-03-04T18:37:45.581Z,33.88
2023-03-04T18:43:49.827Z,32.97
2023-03-04T18:46:56.803Z,29.98
2023-03-04T18:49:59.244Z,29.83
2023-03-04T18:53:01.914Z,31.77
2023-03-04T18:56:13.105Z,36.55
2023-03-04T18:59:27.921Z,38.05
2023-03-04T19:02:34.451Z,46.08
2023-03-04T19:05:36.733Z,37.90
2023-03-04T19:08:38.858Z,31.23
2023-03-04T19:11:40.897Z,33.83
2023-03-04T19:14:43.093Z,34.50
2023-03-04T19:17:45.324Z,37.13
2023-03-04T19:20:47.725Z,35.25
2023-03-04T19:23:50.045Z,32.83
2023-03-04T19:26:52.236Z,35.83
2023-03-04T19:29:54.933Z,37.28
2023-03-04T19:32:57.441Z,33.47
2023-03-04T19:36:01.979Z,34.83
2023-03-04T19:39:04.378Z,36.13
2023-03-04T19:42:06.883Z,38.33
2023-03-04T19:45:09.190Z,32.85
2023-03-04T19:51:22.347Z,33.65
2023-03-04T19:54:24.300Z,37.47
2023-03-04T19:57:26.480Z,34.92
2023-03-04T20:00:28.454Z,31.15
2023-03-04T20:03:30.556Z,29.88
2023-03-04T20:06:34.863Z,32.65
2023-03-04T20:09:37.337Z,35.90
2023-03-04T20:12:39.204Z,38.25
2023-03-04T20:15:44.167Z,34.00
2023-03-04T20:18:46.209Z,32.33
2023-03-04T20:21:48.118Z,32.50
2023-03-04T20:24:49.972Z,38.15
2023-03-04T20:27:51.907Z,34.05
2023-03-04T20:30:54.340Z,35.60
2023-03-04T20:33:56.443Z,33.65
2023-03-04T20:37:00.076Z,34.55
2023-03-04T20:40:02.164Z,36.55
2023-03-04T20:43:05.384Z,35.88
2023-03-04T20:46:27.306Z,33.45
2023-03-04T20:49:29.759Z,32.42
2023-03-04T20:52:32.055Z,33.00
2023-03-04T20:55:33.978Z,33.63
2023-03-04T20:58:36.230Z,35.13
2023-03-04T21:01:41.796Z,36.55
2023-03-04T21:04:43.832Z,39.85
2023-03-04T21:07:45.736Z,32.42
2023-03-04T21:10:51.134Z,29.77
2023-03-04T21:13:54.003Z,29.27
2023-03-04T21:16:58.551Z,34.90
2023-03-04T21:20:00.397Z,30.27
2023-03-04T21:23:02.577Z,32.53
2023-03-04T21:26:06.948Z,36.83
2023-03-04T21:29:08.855Z,31.17
2023-03-04T21:32:24.316Z,36.47
2023-03-04T21:35:27.013Z,34.22
2023-03-04T21:38:28.888Z,35.63
2023-03-04T21:41:32.503Z,35.35
2023-03-04T21:44:48.613Z,37.13
2023-03-04T21:47:51.761Z,41.15
2023-03-04T21:50:53.676Z,38.13
2023-03-04T21:53:55.562Z,35.88
2023-03-04T21:56:57.466Z,32.25
2023-03-04T21:59:59.491Z,38.85
2023-03-04T22:03:01.381Z,33.08
2023-03-04T22:06:08.043Z,35.83
2023-03-04T22:09:10.022Z,34.10
2023-03-04T22:12:11.847Z,38.40
2023-03-04T22:15:13.700Z,33.83
2023-03-04T22:18:15.627Z,37.03
2023-03-04T22:21:19.731Z,36.60
2023-03-04T22:24:22.268Z,31.40
2023-03-04T22:27:24.222Z,33.60
2023-03-04T22:30:30.336Z,30.05
2023-03-04T22:33:32.806Z,31.08
2023-03-04T22:36:36.839Z,32.65
2023-03-04T22:39:38.696Z,29.08
2023-03-04T22:42:43.723Z,34.47
2023-03-04T22:45:45.761Z,30.75
2023-03-04T22:48:48.972Z,34.63
2023-03-04T22:51:50.791Z,32.03
2023-03-04T22:54:52.637Z,33.35
2023-03-04T22:57:54.518Z,36.65
2023-03-04T23:00:56.393Z,35.30
2023-03-04T23:03:58.282Z,33.25
2023-03-04T23:07:00.235Z,32.20
2023-03-04T23:10:02.797Z,36.70
2023-03-04T23:13:04.753Z,33.08
2023-03-04T23:16:08.273Z,37.00
2023-03-04T23:19:15.429Z,32.13
2023-03-04T23:22:17.368Z,36.25
2023-03-04T23:25:19.309Z,34.22
2023-03-04T23:28:21.167Z,33.15
2023-03-04T23:31:23.526Z,33.00
2023-03-04T23:34:27.954Z,32.45
2023-03-04T23:37:29.794Z,32.65
2023-03-04T23:40:31.839Z,31.20
2023-03-04T23:43:33.834Z,34.72
2023-03-04T23:46:35.916Z,41.00
2023-03-04T23:49:38.502Z,32.13
2023-03-04T23:52:40.412Z,40.90
2023-03-04T23:55:42.259Z,39.67
2023-03-04T23:58:44.515Z,36.72
